Leonard, North Dakota
Current Conditions -  °F | °C
As of 2:53 PM on Monday 24 Nov 2014 (Local Time) from KFAR Reporting Station
Few Clouds Few Clouds  
Wind Chill:   Ceiling: Unl
Heat Index: 19°   Visibility: 10mi
Dew Point: 11°   Wind: 20mph
Humidity: 71%   Direction: 340°NNW
Pressure: 29.82"   Gusts: 29mph
Location:  46.65°N, 97.25°W
Report Text: KFAR 242053Z 34017G25KT 10SM FEW014 M07/M12 A2982 RMK AO2 PK WND 34028/2019 SNB1956E14 SLP117 P0000 60000 T10721117 51017
Loading
Personal Weather Stations






























Interactive Weather Map New forecast layout! Learn more

10-Day Weather Forecast

Advertisements
Track Severe Weather on mobile